sensor_id;sensor_type;location;lat;lon;timestamp;P1;durP1;ratioP1;P2;durP2;ratioP2
19905;SDS011;10115;50.906;4.438;2023-05-08T00:01:09;15.10;;;9.83;;
19905;SDS011;10115;50.906;4.438;2023-05-08T00:03:35;12.83;;;10.03;;
19905;SDS011;10115;50.906;4.438;2023-05-08T00:06:04;17.73;;;10.50;;
19905;SDS011;10115;50.906;4.438;2023-05-08T00:08:30;14.33;;;11.20;;
19905;SDS011;10115;50.906;4.438;2023-05-08T00:10:56;15.53;;;10.43;;
19905;SDS011;10115;50.906;4.438;2023-05-08T00:13:21;13.23;;;10.07;;
19905;SDS011;10115;50.906;4.438;2023-05-08T00:15:47;16.70;;;9.97;;
19905;SDS011;10115;50.906;4.438;2023-05-08T00:18:13;13.23;;;9.87;;
19905;SDS011;10115;50.906;4.438;2023-05-08T00:20:39;11.60;;;10.03;;
19905;SDS011;10115;50.906;4.438;2023-05-08T00:23:05;14.57;;;10.40;;
19905;SDS011;10115;50.906;4.438;2023-05-08T00:25:31;10.20;;;8.37;;
19905;SDS011;10115;50.906;4.438;2023-05-08T00:27:57;12.23;;;9.53;;
19905;SDS011;10115;50.906;4.438;2023-05-08T00:30:23;12.90;;;9.77;;
19905;SDS011;10115;50.906;4.438;2023-05-08T00:32:49;13.37;;;8.63;;
19905;SDS011;10115;50.906;4.438;2023-05-08T00:35:15;11.80;;;9.03;;
19905;SDS011;10115;50.906;4.438;2023-05-08T00:37:40;11.50;;;9.17;;
19905;SDS011;10115;50.906;4.438;2023-05-08T00:40:08;9.73;;;8.67;;
19905;SDS011;10115;50.906;4.438;2023-05-08T00:42:35;14.27;;;10.03;;
19905;SDS011;10115;50.906;4.438;2023-05-08T00:45:01;12.43;;;9.03;;
19905;SDS011;10115;50.906;4.438;2023-05-08T00:47:28;12.10;;;9.80;;
19905;SDS011;10115;50.906;4.438;2023-05-08T00:49:55;12.07;;;8.97;;
19905;SDS011;10115;50.906;4.438;2023-05-08T00:52:26;11.73;;;8.83;;
19905;SDS011;10115;50.906;4.438;2023-05-08T00:54:53;14.33;;;9.03;;
19905;SDS011;10115;50.906;4.438;2023-05-08T00:57:19;9.90;;;8.87;;
19905;SDS011;10115;50.906;4.438;2023-05-08T00:59:47;11.60;;;9.77;;
19905;SDS011;10115;50.906;4.438;2023-05-08T01:02:14;26.13;;;13.23;;
19905;SDS011;10115;50.906;4.438;2023-05-08T01:04:41;16.40;;;11.00;;
19905;SDS011;10115;50.906;4.438;2023-05-08T01:07:09;12.97;;;10.40;;
19905;SDS011;10115;50.906;4.438;2023-05-08T01:09:35;16.83;;;11.53;;
19905;SDS011;10115;50.906;4.438;2023-05-08T01:12:09;19.17;;;11.53;;
19905;SDS011;10115;50.906;4.438;2023-05-08T01:14:52;19.60;;;12.03;;
19905;SDS011;10115;50.906;4.438;2023-05-08T01:17:27;18.63;;;11.67;;
19905;SDS011;10115;50.906;4.438;2023-05-08T01:31:42;28.17;;;13.30;;
19905;SDS011;10115;50.906;4.438;2023-05-08T01:34:14;21.10;;;12.93;;
19905;SDS011;10115;50.906;4.438;2023-05-08T01:36:47;22.47;;;13.27;;
19905;SDS011;10115;50.906;4.438;2023-05-08T01:39:18;24.87;;;15.90;;
19905;SDS011;10115;50.906;4.438;2023-05-08T01:41:54;23.07;;;15.00;;
19905;SDS011;10115;50.906;4.438;2023-05-08T01:44:26;22.13;;;15.87;;
19905;SDS011;10115;50.906;4.438;2023-05-08T01:46:57;25.37;;;15.57;;
19905;SDS011;10115;50.906;4.438;2023-05-08T01:49:33;27.07;;;17.57;;
19905;SDS011;10115;50.906;4.438;2023-05-08T01:52:04;30.63;;;16.93;;
19905;SDS011;10115;50.906;4.438;2023-05-08T01:54:35;31.53;;;16.67;;
19905;SDS011;10115;50.906;4.438;2023-05-08T01:57:07;35.73;;;19.10;;
19905;SDS011;10115;50.906;4.438;2023-05-08T01:59:34;42.43;;;19.93;;
19905;SDS011;10115;50.906;4.438;2023-05-08T02:02:02;37.33;;;20.53;;
19905;SDS011;10115;50.906;4.438;2023-05-08T02:04:29;41.00;;;21.53;;
19905;SDS011;10115;50.906;4.438;2023-05-08T02:06:57;41.97;;;22.40;;
19905;SDS011;10115;50.906;4.438;2023-05-08T02:09:23;35.47;;;19.20;;
19905;SDS011;10115;50.906;4.438;2023-05-08T02:11:51;35.63;;;20.03;;
19905;SDS011;10115;50.906;4.438;2023-05-08T02:14:18;43.07;;;23.87;;
19905;SDS011;10115;50.906;4.438;2023-05-08T02:16:45;36.73;;;19.73;;
19905;SDS011;10115;50.906;4.438;2023-05-08T02:19:14;39.73;;;20.43;;
19905;SDS011;10115;50.906;4.438;2023-05-08T02:21:41;46.27;;;21.37;;
19905;SDS011;10115;50.906;4.438;2023-05-08T02:24:09;57.23;;;25.43;;
19905;SDS011;10115;50.906;4.438;2023-05-08T02:26:38;54.63;;;23.80;;
19905;SDS011;10115;50.906;4.438;2023-05-08T02:29:06;46.73;;;21.80;;
19905;SDS011;10115;50.906;4.438;2023-05-08T02:31:33;57.47;;;24.27;;
19905;SDS011;10115;50.906;4.438;2023-05-08T02:34:00;65.13;;;25.30;;
19905;SDS011;10115;50.906;4.438;2023-05-08T02:36:28;57.40;;;26.47;;
19905;SDS011;10115;50.906;4.438;2023-05-08T02:38:55;61.07;;;26.17;;
19905;SDS011;10115;50.906;4.438;2023-05-08T02:41:23;75.17;;;28.60;;
19905;SDS011;10115;50.906;4.438;2023-05-08T02:43:53;62.90;;;26.97;;
19905;SDS011;10115;50.906;4.438;2023-05-08T02:49:24;67.83;;;27.37;;
19905;SDS011;10115;50.906;4.438;2023-05-08T02:55:02;67.70;;;34.50;;
19905;SDS011;10115;50.906;4.438;2023-05-08T03:02:48;86.50;;;33.23;;
19905;SDS011;10115;50.906;4.438;2023-05-08T03:05:18;90.77;;;36.10;;
19905;SDS011;10115;50.906;4.438;2023-05-08T03:07:51;95.40;;;38.53;;
19905;SDS011;10115;50.906;4.438;2023-05-08T03:10:18;101.03;;;38.97;;
19905;SDS011;10115;50.906;4.438;2023-05-08T03:12:48;118.13;;;42.13;;
19905;SDS011;10115;50.906;4.438;2023-05-08T03:15:20;87.17;;;35.30;;
19905;SDS011;10115;50.906;4.438;2023-05-08T03:17:57;92.30;;;35.13;;
19905;SDS011;10115;50.906;4.438;2023-05-08T03:20:29;92.13;;;36.90;;
19905;SDS011;10115;50.906;4.438;2023-05-08T03:22:59;87.93;;;35.17;;
19905;SDS011;10115;50.906;4.438;2023-05-08T03:25:28;95.00;;;32.47;;
19905;SDS011;10115;50.906;4.438;2023-05-08T03:27:56;92.63;;;37.10;;
19905;SDS011;10115;50.906;4.438;2023-05-08T03:30:24;89.20;;;35.47;;
19905;SDS011;10115;50.906;4.438;2023-05-08T03:32:51;111.53;;;37.13;;
19905;SDS011;10115;50.906;4.438;2023-05-08T03:35:18;83.23;;;31.80;;
19905;SDS011;10115;50.906;4.438;2023-05-08T03:37:45;96.13;;;38.07;;
19905;SDS011;10115;50.906;4.438;2023-05-08T03:40:11;94.77;;;33.07;;
19905;SDS011;10115;50.906;4.438;2023-05-08T03:42:37;88.10;;;34.83;;
19905;SDS011;10115;50.906;4.438;2023-05-08T03:45:04;95.57;;;34.47;;
19905;SDS011;10115;50.906;4.438;2023-05-08T03:47:31;94.83;;;33.60;;
19905;SDS011;10115;50.906;4.438;2023-05-08T03:49:59;78.87;;;33.00;;
19905;SDS011;10115;50.906;4.438;2023-05-08T03:52:26;88.83;;;31.97;;
19905;SDS011;10115;50.906;4.438;2023-05-08T03:54:51;80.63;;;30.00;;
19905;SDS011;10115;50.906;4.438;2023-05-08T03:57:17;76.57;;;28.37;;
19905;SDS011;10115;50.906;4.438;2023-05-08T04:05:09;78.73;;;29.43;;
19905;SDS011;10115;50.906;4.438;2023-05-08T04:07:49;86.73;;;30.77;;
19905;SDS011;10115;50.906;4.438;2023-05-08T04:10:20;94.33;;;30.93;;
19905;SDS011;10115;50.906;4.438;2023-05-08T04:15:51;74.10;;;28.60;;
19905;SDS011;10115;50.906;4.438;2023-05-08T04:18:24;86.30;;;33.40;;
19905;SDS011;10115;50.906;4.438;2023-05-08T04:20:54;74.43;;;31.30;;
19905;SDS011;10115;50.906;4.438;2023-05-08T04:23:21;87.13;;;33.03;;
19905;SDS011;10115;50.906;4.438;2023-05-08T04:25:50;86.93;;;32.70;;
19905;SDS011;10115;50.906;4.438;2023-05-08T04:28:17;87.87;;;34.73;;
19905;SDS011;10115;50.906;4.438;2023-05-08T04:30:43;89.03;;;31.60;;
19905;SDS011;10115;50.906;4.438;2023-05-08T04:33:09;76.97;;;30.20;;
19905;SDS011;10115;50.906;4.438;2023-05-08T04:35:36;78.07;;;30.57;;
19905;SDS011;10115;50.906;4.438;2023-05-08T04:38:02;87.30;;;32.70;;
19905;SDS011;10115;50.906;4.438;2023-05-08T04:40:28;94.50;;;31.77;;
19905;SDS011;10115;50.906;4.438;2023-05-08T04:42:53;88.40;;;33.80;;
19905;SDS011;10115;50.906;4.438;2023-05-08T04:45:19;96.93;;;33.47;;
19905;SDS011;10115;50.906;4.438;2023-05-08T04:47:45;82.87;;;32.93;;
19905;SDS011;10115;50.906;4.438;2023-05-08T04:50:11;91.30;;;34.93;;
19905;SDS011;10115;50.906;4.438;2023-05-08T04:52:37;114.80;;;37.20;;
19905;SDS011;10115;50.906;4.438;2023-05-08T04:55:02;91.33;;;33.47;;
19905;SDS011;10115;50.906;4.438;2023-05-08T04:57:28;101.97;;;36.40;;
19905;SDS011;10115;50.906;4.438;2023-05-08T04:59:54;116.97;;;38.63;;
19905;SDS011;10115;50.906;4.438;2023-05-08T05:02:20;98.87;;;35.57;;
19905;SDS011;10115;50.906;4.438;2023-05-08T05:04:45;103.10;;;36.20;;
19905;SDS011;10115;50.906;4.438;2023-05-08T05:07:11;116.93;;;36.63;;
19905;SDS011;10115;50.906;4.438;2023-05-08T05:09:37;110.37;;;33.00;;
19905;SDS011;10115;50.906;4.438;2023-05-08T05:12:06;99.87;;;35.70;;
19905;SDS011;10115;50.906;4.438;2023-05-08T05:14:32;110.97;;;37.97;;
19905;SDS011;10115;50.906;4.438;2023-05-08T05:16:58;96.30;;;35.43;;
19905;SDS011;10115;50.906;4.438;2023-05-08T05:19:23;100.47;;;34.90;;
19905;SDS011;10115;50.906;4.438;2023-05-08T05:21:49;97.47;;;33.77;;
19905;SDS011;10115;50.906;4.438;2023-05-08T05:24:15;106.93;;;36.20;;
19905;SDS011;10115;50.906;4.438;2023-05-08T05:26:40;119.10;;;36.40;;
19905;SDS011;10115;50.906;4.438;2023-05-08T05:29:06;99.00;;;34.73;;
19905;SDS011;10115;50.906;4.438;2023-05-08T05:31:32;95.33;;;32.53;;
19905;SDS011;10115;50.906;4.438;2023-05-08T05:33:58;98.87;;;36.33;;
19905;SDS011;10115;50.906;4.438;2023-05-08T05:36:23;113.23;;;35.80;;
19905;SDS011;10115;50.906;4.438;2023-05-08T05:38:49;114.90;;;36.70;;
19905;SDS011;10115;50.906;4.438;2023-05-08T05:41:15;120.83;;;39.83;;
19905;SDS011;10115;50.906;4.438;2023-05-08T05:43:40;106.77;;;37.23;;
19905;SDS011;10115;50.906;4.438;2023-05-08T05:46:06;86.20;;;35.17;;
19905;SDS011;10115;50.906;4.438;2023-05-08T05:48:33;111.83;;;39.10;;
19905;SDS011;10115;50.906;4.438;2023-05-08T05:51:00;103.43;;;39.73;;
19905;SDS011;10115;50.906;4.438;2023-05-08T05:53:26;99.50;;;38.00;;
19905;SDS011;10115;50.906;4.438;2023-05-08T05:55:52;121.77;;;42.03;;
19905;SDS011;10115;50.906;4.438;2023-05-08T05:58:18;122.50;;;40.53;;
19905;SDS011;10115;50.906;4.438;2023-05-08T06:00:44;103.03;;;35.43;;
19905;SDS011;10115;50.906;4.438;2023-05-08T06:03:11;111.67;;;37.53;;
19905;SDS011;10115;50.906;4.438;2023-05-08T06:05:37;129.50;;;41.67;;
19905;SDS011;10115;50.906;4.438;2023-05-08T06:08:04;100.97;;;34.90;;
19905;SDS011;10115;50.906;4.438;2023-05-08T06:10:30;111.20;;;39.53;;
19905;SDS011;10115;50.906;4.438;2023-05-08T06:12:56;109.53;;;37.77;;
19905;SDS011;10115;50.906;4.438;2023-05-08T06:15:22;108.33;;;36.77;;
19905;SDS011;10115;50.906;4.438;2023-05-08T06:17:48;104.93;;;37.30;;
19905;SDS011;10115;50.906;4.438;2023-05-08T06:20:13;100.07;;;35.87;;
19905;SDS011;10115;50.906;4.438;2023-05-08T06:22:39;113.47;;;36.67;;
19905;SDS011;10115;50.906;4.438;2023-05-08T06:25:06;92.43;;;31.30;;
19905;SDS011;10115;50.906;4.438;2023-05-08T06:27:32;91.03;;;30.40;;
19905;SDS011;10115;50.906;4.438;2023-05-08T06:29:58;88.07;;;32.27;;
19905;SDS011;10115;50.906;4.438;2023-05-08T06:32:24;88.30;;;30.00;;
19905;SDS011;10115;50.906;4.438;2023-05-08T06:34:50;90.47;;;31.07;;
19905;SDS011;10115;50.906;4.438;2023-05-08T06:37:16;73.20;;;29.67;;
19905;SDS011;10115;50.906;4.438;2023-05-08T06:39:41;76.90;;;27.83;;
19905;SDS011;10115;50.906;4.438;2023-05-08T06:42:07;69.73;;;24.63;;
19905;SDS011;10115;50.906;4.438;2023-05-08T06:44:33;82.67;;;29.33;;
19905;SDS011;10115;50.906;4.438;2023-05-08T06:46:59;82.50;;;28.83;;
19905;SDS011;10115;50.906;4.438;2023-05-08T06:49:24;68.47;;;27.67;;
19905;SDS011;10115;50.906;4.438;2023-05-08T06:51:50;79.07;;;25.43;;
19905;SDS011;10115;50.906;4.438;2023-05-08T06:54:16;62.10;;;22.33;;
19905;SDS011;10115;50.906;4.438;2023-05-08T06:56:42;65.70;;;22.57;;
19905;SDS011;10115;50.906;4.438;2023-05-08T06:59:08;55.03;;;23.87;;
19905;SDS011;10115;50.906;4.438;2023-05-08T07:01:34;65.90;;;26.10;;
19905;SDS011;10115;50.906;4.438;2023-05-08T07:04:01;58.30;;;22.60;;
19905;SDS011;10115;50.906;4.438;2023-05-08T07:06:27;71.17;;;23.43;;
19905;SDS011;10115;50.906;4.438;2023-05-08T07:08:55;55.63;;;21.60;;
19905;SDS011;10115;50.906;4.438;2023-05-08T07:11:21;49.83;;;22.23;;
19905;SDS011;10115;50.906;4.438;2023-05-08T07:13:46;65.90;;;24.63;;
19905;SDS011;10115;50.906;4.438;2023-05-08T07:16:13;53.70;;;21.40;;
19905;SDS011;10115;50.906;4.438;2023-05-08T07:18:39;48.67;;;20.03;;
19905;SDS011;10115;50.906;4.438;2023-05-08T07:21:05;52.73;;;19.63;;
19905;SDS011;10115;50.906;4.438;2023-05-08T07:23:32;46.83;;;21.17;;
19905;SDS011;10115;50.906;4.438;2023-05-08T07:25:58;49.00;;;19.27;;
19905;SDS011;10115;50.906;4.438;2023-05-08T07:28:25;55.87;;;23.23;;
19905;SDS011;10115;50.906;4.438;2023-05-08T07:30:51;55.77;;;22.83;;
19905;SDS011;10115;50.906;4.438;2023-05-08T07:33:16;49.67;;;22.17;;
19905;SDS011;10115;50.906;4.438;2023-05-08T07:35:43;54.17;;;22.27;;
19905;SDS011;10115;50.906;4.438;2023-05-08T07:38:08;51.17;;;22.80;;
19905;SDS011;10115;50.906;4.438;2023-05-08T07:40:34;51.47;;;22.83;;
19905;SDS011;10115;50.906;4.438;2023-05-08T07:43:00;41.17;;;20.13;;
19905;SDS011;10115;50.906;4.438;2023-05-08T07:45:26;55.67;;;23.03;;
19905;SDS011;10115;50.906;4.438;2023-05-08T07:47:52;45.20;;;20.73;;
19905;SDS011;10115;50.906;4.438;2023-05-08T07:50:19;49.93;;;23.27;;
19905;SDS011;10115;50.906;4.438;2023-05-08T07:52:46;58.23;;;24.00;;
19905;SDS011;10115;50.906;4.438;2023-05-08T07:55:12;60.63;;;20.63;;
19905;SDS011;10115;50.906;4.438;2023-05-08T07:57:41;47.13;;;21.63;;
19905;SDS011;10115;50.906;4.438;2023-05-08T08:00:08;54.43;;;19.60;;
19905;SDS011;10115;50.906;4.438;2023-05-08T08:02:36;37.27;;;19.00;;
19905;SDS011;10115;50.906;4.438;2023-05-08T08:05:02;64.07;;;23.97;;
19905;SDS011;10115;50.906;4.438;2023-05-08T08:07:29;70.63;;;22.97;;
19905;SDS011;10115;50.906;4.438;2023-05-08T08:09:56;48.97;;;20.37;;
19905;SDS011;10115;50.906;4.438;2023-05-08T08:12:26;51.70;;;21.80;;
19905;SDS011;10115;50.906;4.438;2023-05-08T08:14:52;59.00;;;22.13;;
19905;SDS011;10115;50.906;4.438;2023-05-08T08:17:18;48.27;;;21.27;;
19905;SDS011;10115;50.906;4.438;2023-05-08T08:19:44;54.23;;;21.13;;
19905;SDS011;10115;50.906;4.438;2023-05-08T08:22:10;47.50;;;22.43;;
19905;SDS011;10115;50.906;4.438;2023-05-08T08:24:35;56.60;;;22.53;;
19905;SDS011;10115;50.906;4.438;2023-05-08T08:27:01;56.10;;;23.20;;
19905;SDS011;10115;50.906;4.438;2023-05-08T08:29:28;55.03;;;21.73;;
19905;SDS011;10115;50.906;4.438;2023-05-08T08:31:54;50.60;;;21.73;;
19905;SDS011;10115;50.906;4.438;2023-05-08T08:34:20;47.57;;;18.27;;
19905;SDS011;10115;50.906;4.438;2023-05-08T08:36:46;55.80;;;22.33;;
19905;SDS011;10115;50.906;4.438;2023-05-08T08:39:12;49.50;;;20.83;;
19905;SDS011;10115;50.906;4.438;2023-05-08T08:41:38;55.93;;;20.93;;
19905;SDS011;10115;50.906;4.438;2023-05-08T08:44:04;55.40;;;21.67;;
19905;SDS011;10115;50.906;4.438;2023-05-08T08:46:30;35.70;;;18.57;;
19905;SDS011;10115;50.906;4.438;2023-05-08T08:49:00;55.33;;;20.60;;
19905;SDS011;10115;50.906;4.438;2023-05-08T08:51:31;55.67;;;20.13;;
19905;SDS011;10115;50.906;4.438;2023-05-08T08:54:11;44.97;;;21.07;;
19905;SDS011;10115;50.906;4.438;2023-05-08T08:56:38;38.27;;;17.53;;
19905;SDS011;10115;50.906;4.438;2023-05-08T08:59:07;40.80;;;19.60;;
19905;SDS011;10115;50.906;4.438;2023-05-08T09:01:34;47.07;;;20.07;;
19905;SDS011;10115;50.906;4.438;2023-05-08T09:04:02;37.30;;;18.03;;
19905;SDS011;10115;50.906;4.438;2023-05-08T09:06:29;38.23;;;18.23;;
19905;SDS011;10115;50.906;4.438;2023-05-08T09:08:59;26.87;;;12.17;;
19905;SDS011;10115;50.906;4.438;2023-05-08T09:11:35;32.37;;;16.30;;
19905;SDS011;10115;50.906;4.438;2023-05-08T09:14:02;39.80;;;16.47;;
19905;SDS011;10115;50.906;4.438;2023-05-08T09:16:28;35.17;;;16.37;;
19905;SDS011;10115;50.906;4.438;2023-05-08T09:18:54;37.83;;;16.33;;
19905;SDS011;10115;50.906;4.438;2023-05-08T09:21:20;44.47;;;18.03;;
19905;SDS011;10115;50.906;4.438;2023-05-08T09:23:55;36.43;;;17.57;;
19905;SDS011;10115;50.906;4.438;2023-05-08T09:26:28;38.97;;;18.47;;
19905;SDS011;10115;50.906;4.438;2023-05-08T09:31:39;38.33;;;17.33;;
19905;SDS011;10115;50.906;4.438;2023-05-08T09:34:09;35.93;;;17.57;;
19905;SDS011;10115;50.906;4.438;2023-05-08T09:36:36;45.37;;;17.83;;
19905;SDS011;10115;50.906;4.438;2023-05-08T09:39:04;33.50;;;17.30;;
19905;SDS011;10115;50.906;4.438;2023-05-08T09:41:35;41.50;;;16.77;;
19905;SDS011;10115;50.906;4.438;2023-05-08T09:44:05;45.20;;;18.63;;
19905;SDS011;10115;50.906;4.438;2023-05-08T09:46:31;38.83;;;16.50;;
19905;SDS011;10115;50.906;4.438;2023-05-08T09:48:59;39.00;;;16.20;;
19905;SDS011;10115;50.906;4.438;2023-05-08T09:51:26;25.27;;;11.40;;
19905;SDS011;10115;50.906;4.438;2023-05-08T09:53:54;40.20;;;17.30;;
19905;SDS011;10115;50.906;4.438;2023-05-08T09:56:54;40.07;;;18.57;;
19905;SDS011;10115;50.906;4.438;2023-05-08T09:59:23;39.90;;;17.73;;
19905;SDS011;10115;50.906;4.438;2023-05-08T10:01:50;37.27;;;17.43;;
19905;SDS011;10115;50.906;4.438;2023-05-08T10:04:17;31.10;;;14.83;;
19905;SDS011;10115;50.906;4.438;2023-05-08T10:06:58;42.67;;;17.93;;
19905;SDS011;10115;50.906;4.438;2023-05-08T10:09:24;34.60;;;17.30;;
19905;SDS011;10115;50.906;4.438;2023-05-08T10:11:50;36.00;;;16.73;;
19905;SDS011;10115;50.906;4.438;2023-05-08T10:14:17;28.73;;;13.87;;
19905;SDS011;10115;50.906;4.438;2023-05-08T10:16:44;32.27;;;15.47;;
19905;SDS011;10115;50.906;4.438;2023-05-08T10:19:13;31.80;;;17.97;;
19905;SDS011;10115;50.906;4.438;2023-05-08T10:21:41;39.43;;;13.70;;
19905;SDS011;10115;50.906;4.438;2023-05-08T10:24:20;29.17;;;12.83;;
19905;SDS011;10115;50.906;4.438;2023-05-08T10:32:15;30.60;;;14.10;;
19905;SDS011;10115;50.906;4.438;2023-05-08T10:34:44;27.17;;;14.57;;
19905;SDS011;10115;50.906;4.438;2023-05-08T10:37:15;30.87;;;14.50;;
19905;SDS011;10115;50.906;4.438;2023-05-08T10:39:41;28.03;;;14.50;;
19905;SDS011;10115;50.906;4.438;2023-05-08T10:42:09;22.30;;;13.83;;
19905;SDS011;10115;50.906;4.438;2023-05-08T10:44:37;33.73;;;13.67;;
19905;SDS011;10115;50.906;4.438;2023-05-08T10:50:21;30.33;;;15.50;;
19905;SDS011;10115;50.906;4.438;2023-05-08T10:53:18;31.00;;;12.60;;
19905;SDS011;10115;50.906;4.438;2023-05-08T10:55:49;30.37;;;14.87;;
19905;SDS011;10115;50.906;4.438;2023-05-08T11:03:16;23.57;;;11.90;;
19905;SDS011;10115;50.906;4.438;2023-05-08T11:05:48;23.83;;;12.67;;
19905;SDS011;10115;50.906;4.438;2023-05-08T11:08:19;13.93;;;9.77;;
19905;SDS011;10115;50.906;4.438;2023-05-08T11:13:49;19.37;;;10.37;;
19905;SDS011;10115;50.906;4.438;2023-05-08T11:19:25;20.53;;;11.70;;
19905;SDS011;10115;50.906;4.438;2023-05-08T11:24:54;16.93;;;9.33;;
19905;SDS011;10115;50.906;4.438;2023-05-08T11:28:08;17.03;;;9.03;;
19905;SDS011;10115;50.906;4.438;2023-05-08T11:38:13;15.60;;;8.77;;
19905;SDS011;10115;50.906;4.438;2023-05-08T11:46:02;15.13;;;8.97;;
19905;SDS011;10115;50.906;4.438;2023-05-08T11:48:44;16.77;;;9.37;;
19905;SDS011;10115;50.906;4.438;2023-05-08T11:51:10;17.87;;;9.43;;
19905;SDS011;10115;50.906;4.438;2023-05-08T11:53:37;13.97;;;8.73;;
19905;SDS011;10115;50.906;4.438;2023-05-08T11:56:03;22.40;;;10.03;;
19905;SDS011;10115;50.906;4.438;2023-05-08T11:58:29;13.33;;;8.97;;
19905;SDS011;10115;50.906;4.438;2023-05-08T12:00:55;15.33;;;9.33;;
19905;SDS011;10115;50.906;4.438;2023-05-08T12:03:22;15.47;;;9.70;;
19905;SDS011;10115;50.906;4.438;2023-05-08T12:05:54;14.53;;;9.60;;
19905;SDS011;10115;50.906;4.438;2023-05-08T12:08:21;18.13;;;9.87;;
19905;SDS011;10115;50.906;4.438;2023-05-08T12:10:48;18.00;;;10.50;;
19905;SDS011;10115;50.906;4.438;2023-05-08T12:13:18;10.37;;;6.73;;
19905;SDS011;10115;50.906;4.438;2023-05-08T12:15:45;19.17;;;9.43;;
19905;SDS011;10115;50.906;4.438;2023-05-08T12:18:12;12.07;;;8.47;;
19905;SDS011;10115;50.906;4.438;2023-05-08T12:20:39;11.87;;;7.27;;
19905;SDS011;10115;50.906;4.438;2023-05-08T12:23:04;11.40;;;7.80;;
19905;SDS011;10115;50.906;4.438;2023-05-08T12:25:30;17.83;;;8.70;;
19905;SDS011;10115;50.906;4.438;2023-05-08T12:27:56;11.60;;;7.83;;
19905;SDS011;10115;50.906;4.438;2023-05-08T12:30:23;11.33;;;8.17;;
19905;SDS011;10115;50.906;4.438;2023-05-08T12:32:49;16.80;;;8.27;;
19905;SDS011;10115;50.906;4.438;2023-05-08T12:35:16;17.40;;;9.87;;
19905;SDS011;10115;50.906;4.438;2023-05-08T12:37:43;12.87;;;8.37;;
19905;SDS011;10115;50.906;4.438;2023-05-08T12:40:21;11.27;;;8.97;;
19905;SDS011;10115;50.906;4.438;2023-05-08T12:42:50;12.07;;;7.60;;
19905;SDS011;10115;50.906;4.438;2023-05-08T12:45:19;13.27;;;9.07;;
19905;SDS011;10115;50.906;4.438;2023-05-08T12:47:47;9.00;;;7.03;;
19905;SDS011;10115;50.906;4.438;2023-05-08T12:50:14;14.20;;;9.60;;
19905;SDS011;10115;50.906;4.438;2023-05-08T12:52:40;15.13;;;9.60;;
19905;SDS011;10115;50.906;4.438;2023-05-08T12:55:18;11.93;;;9.10;;
19905;SDS011;10115;50.906;4.438;2023-05-08T12:58:10;12.77;;;8.23;;
19905;SDS011;10115;50.906;4.438;2023-05-08T13:00:41;17.07;;;10.03;;
19905;SDS011;10115;50.906;4.438;2023-05-08T13:03:09;15.10;;;9.57;;
19905;SDS011;10115;50.906;4.438;2023-05-08T13:05:40;16.23;;;9.20;;
19905;SDS011;10115;50.906;4.438;2023-05-08T13:08:07;17.13;;;9.27;;
19905;SDS011;10115;50.906;4.438;2023-05-08T13:10:44;21.10;;;10.07;;
19905;SDS011;10115;50.906;4.438;2023-05-08T13:13:13;17.73;;;10.77;;
19905;SDS011;10115;50.906;4.438;2023-05-08T13:15:40;15.27;;;8.53;;
19905;SDS011;10115;50.906;4.438;2023-05-08T13:18:05;14.13;;;7.83;;
19905;SDS011;10115;50.906;4.438;2023-05-08T13:20:32;20.37;;;9.07;;
19905;SDS011;10115;50.906;4.438;2023-05-08T13:22:58;17.27;;;9.13;;
19905;SDS011;10115;50.906;4.438;2023-05-08T13:25:24;14.43;;;8.97;;
19905;SDS011;10115;50.906;4.438;2023-05-08T13:27:50;20.57;;;8.80;;
19905;SDS011;10115;50.906;4.438;2023-05-08T13:30:15;13.30;;;8.70;;
19905;SDS011;10115;50.906;4.438;2023-05-08T13:32:42;18.20;;;9.27;;
19905;SDS011;10115;50.906;4.438;2023-05-08T13:35:07;24.57;;;10.13;;
19905;SDS011;10115;50.906;4.438;2023-05-08T13:37:33;18.30;;;10.17;;
19905;SDS011;10115;50.906;4.438;2023-05-08T13:40:00;19.37;;;9.77;;
19905;SDS011;10115;50.906;4.438;2023-05-08T13:42:25;15.30;;;8.93;;
19905;SDS011;10115;50.906;4.438;2023-05-08T13:44:51;23.70;;;9.10;;
19905;SDS011;10115;50.906;4.438;2023-05-08T13:47:17;15.93;;;8.50;;
19905;SDS011;10115;50.906;4.438;2023-05-08T13:49:42;19.43;;;9.70;;
19905;SDS011;10115;50.906;4.438;2023-05-08T13:52:10;15.03;;;10.37;;
19905;SDS011;10115;50.906;4.438;2023-05-08T13:54:36;18.00;;;10.33;;
19905;SDS011;10115;50.906;4.438;2023-05-08T13:57:02;17.40;;;9.73;;
19905;SDS011;10115;50.906;4.438;2023-05-08T13:59:28;14.23;;;8.93;;
19905;SDS011;10115;50.906;4.438;2023-05-08T14:01:55;12.30;;;7.70;;
19905;SDS011;10115;50.906;4.438;2023-05-08T14:04:20;12.60;;;8.40;;
19905;SDS011;10115;50.906;4.438;2023-05-08T14:06:46;11.70;;;8.83;;
19905;SDS011;10115;50.906;4.438;2023-05-08T14:09:12;13.73;;;8.87;;
19905;SDS011;10115;50.906;4.438;2023-05-08T14:11:38;8.63;;;7.47;;
19905;SDS011;10115;50.906;4.438;2023-05-08T14:14:03;12.47;;;8.03;;
19905;SDS011;10115;50.906;4.438;2023-05-08T14:16:29;10.73;;;7.90;;
19905;SDS011;10115;50.906;4.438;2023-05-08T14:18:55;16.83;;;9.67;;
19905;SDS011;10115;50.906;4.438;2023-05-08T14:21:20;11.97;;;8.73;;
19905;SDS011;10115;50.906;4.438;2023-05-08T14:23:46;13.47;;;10.30;;
19905;SDS011;10115;50.906;4.438;2023-05-08T14:26:12;17.10;;;10.43;;
19905;SDS011;10115;50.906;4.438;2023-05-08T14:28:37;18.40;;;10.77;;
19905;SDS011;10115;50.906;4.438;2023-05-08T14:31:03;8.93;;;7.90;;
19905;SDS011;10115;50.906;4.438;2023-05-08T14:33:29;23.63;;;9.97;;
19905;SDS011;10115;50.906;4.438;2023-05-08T14:35:54;15.43;;;9.37;;
19905;SDS011;10115;50.906;4.438;2023-05-08T14:38:20;14.90;;;9.83;;
19905;SDS011;10115;50.906;4.438;2023-05-08T14:40:48;17.07;;;9.20;;
19905;SDS011;10115;50.906;4.438;2023-05-08T14:43:15;14.07;;;9.37;;
19905;SDS011;10115;50.906;4.438;2023-05-08T14:45:42;18.60;;;7.63;;
19905;SDS011;10115;50.906;4.438;2023-05-08T14:48:07;13.20;;;8.60;;
19905;SDS011;10115;50.906;4.438;2023-05-08T14:50:34;15.67;;;9.33;;
19905;SDS011;10115;50.906;4.438;2023-05-08T14:53:00;9.27;;;7.63;;
19905;SDS011;10115;50.906;4.438;2023-05-08T14:55:26;12.97;;;8.37;;
19905;SDS011;10115;50.906;4.438;2023-05-08T14:57:51;8.03;;;6.87;;
19905;SDS011;10115;50.906;4.438;2023-05-08T15:00:17;10.73;;;8.33;;
19905;SDS011;10115;50.906;4.438;2023-05-08T15:02:44;8.33;;;7.43;;
19905;SDS011;10115;50.906;4.438;2023-05-08T15:05:10;8.60;;;7.13;;
19905;SDS011;10115;50.906;4.438;2023-05-08T15:07:35;12.50;;;8.53;;
19905;SDS011;10115;50.906;4.438;2023-05-08T15:10:01;9.83;;;7.63;;
19905;SDS011;10115;50.906;4.438;2023-05-08T15:12:28;8.57;;;7.27;;
19905;SDS011;10115;50.906;4.438;2023-05-08T15:14:54;8.60;;;7.73;;
19905;SDS011;10115;50.906;4.438;2023-05-08T15:17:20;14.90;;;7.70;;
19905;SDS011;10115;50.906;4.438;2023-05-08T15:19:46;9.50;;;8.30;;
19905;SDS011;10115;50.906;4.438;2023-05-08T15:22:12;9.57;;;7.23;;
19905;SDS011;10115;50.906;4.438;2023-05-08T15:24:37;10.67;;;8.00;;
19905;SDS011;10115;50.906;4.438;2023-05-08T15:27:03;16.17;;;8.73;;
19905;SDS011;10115;50.906;4.438;2023-05-08T15:29:29;12.97;;;7.80;;
19905;SDS011;10115;50.906;4.438;2023-05-08T15:31:55;11.40;;;7.77;;
19905;SDS011;10115;50.906;4.438;2023-05-08T15:34:21;11.37;;;7.67;;
19905;SDS011;10115;50.906;4.438;2023-05-08T15:36:46;8.17;;;6.60;;
19905;SDS011;10115;50.906;4.438;2023-05-08T15:39:15;8.70;;;6.73;;